Childersburg, Alabama
Current Conditions -  °F | °C
As of 6:35 AM on Wednesday 26 Nov 2014 (Local Time) from KSCD Reporting Station
Clear Clear  
Wind Chill: 27°   Ceiling: Unl
Heat Index: 33°   Visibility: 10mi
Dew Point: 30°   Wind: 7mph
Humidity: 87%   Direction: 270°W
Pressure: 30.15"   Gusts: NA
Location:  33.28°N, 86.35°W
Report Text: KSCD 261235Z AUTO 27006KT 10SM CLR 01/M01 A3015 RMK AO2 T00071013
Loading
Personal Weather Stations






























Interactive Weather Map New forecast layout! Learn more

10-Day Weather Forecast

Advertisements
Track Severe Weather on mobile